Time;durP1;ratioP1;P1;durP2;ratioP2;P2;SDS_P1;SDS_P2;PMS_P1;PMS_P2;Temp;Humidity;BMP_temperature;BMP_pressure;BME280_temperature;BME280_humidity;BME280_pressure;Samples;Min_cycle;Max_cycle;Signal;HPM_P1;HPM_P2
2022/08/01 00:00:10;;;;;;;;;11.40;11.40;;;;;28.18;nan;99191.38;5131523;27;8847;-78
2022/08/01 00:02:59;;;;;;;;;11.60;9.80;;;;;27.93;nan;99187.94;5149319;27;8967;-81
2022/08/01 00:05:27;;;;;;;;;9.40;9.40;;;;;28.00;nan;99185.66;5131304;27;8873;-78
2022/08/01 00:07:57;;;;;;;;;11.20;10.80;;;;;27.93;nan;99189.78;5142749;27;8842;-78
2022/08/01 00:10:25;;;;;;;;;9.60;9.60;;;;;28.00;nan;99183.81;5110428;27;8850;-79
2022/08/01 00:12:55;;;;;;;;;11.00;11.00;;;;;28.07;nan;99191.34;5110058;27;9606;-80
2022/08/01 00:15:24;;;;;;;;;13.40;11.40;;;;;27.89;nan;99193.69;5127051;27;8834;-80
2022/08/01 00:17:52;;;;;;;;;12.00;11.20;;;;;27.98;nan;99192.97;5099093;27;8842;-81
2022/08/01 00:20:21;;;;;;;;;11.60;9.80;;;;;28.05;nan;99199.53;5132264;27;8856;-79
2022/08/01 00:22:50;;;;;;;;;9.20;8.60;;;;;28.12;nan;99200.75;5113524;27;8870;-77
2022/08/01 00:25:18;;;;;;;;;11.80;10.20;;;;;28.21;nan;99191.13;5132164;27;8896;-79
2022/08/01 00:27:47;;;;;;;;;9.40;9.40;;;;;28.12;nan;99191.84;5062431;27;8829;-78
2022/08/01 00:30:17;;;;;;;;;11.60;11.20;;;;;28.08;nan;99191.25;5114099;27;8881;-78
2022/08/01 00:32:45;;;;;;;;;11.40;11.40;;;;;27.97;nan;99192.09;5106750;27;8857;-75
2022/08/01 00:35:14;;;;;;;;;13.80;12.60;;;;;27.96;nan;99190.38;5115527;27;8858;-77
2022/08/01 00:37:43;;;;;;;;;10.00;10.00;;;;;27.95;nan;99190.50;5131823;27;8918;-78
2022/08/01 00:40:12;;;;;;;;;12.60;11.80;;;;;27.87;nan;99188.41;5132403;27;8883;-80
2022/08/01 00:42:41;;;;;;;;;13.40;11.80;;;;;27.87;nan;99190.22;5095976;27;8846;-78
2022/08/01 00:45:11;;;;;;;;;13.00;11.80;;;;;27.77;nan;99190.09;5113393;27;8892;-77
2022/08/01 00:47:41;;;;;;;;;12.20;12.20;;;;;27.83;nan;99191.41;5132449;27;8867;-80
2022/08/01 00:50:11;;;;;;;;;14.00;13.00;;;;;27.83;nan;99186.94;5152521;27;8873;-79
2022/08/01 00:52:41;;;;;;;;;13.00;12.80;;;;;27.78;nan;99189.09;5083092;27;8882;-79
2022/08/01 00:55:13;;;;;;;;;11.00;10.40;;;;;27.71;nan;99191.44;5134365;27;8839;-77
2022/08/01 00:57:43;;;;;;;;;11.00;11.00;;;;;27.66;nan;99190.06;5098992;27;8861;-78
2022/08/01 01:00:31;;;;;;;;;16.40;13.00;;;;;27.56;nan;99185.44;5116656;27;8861;-76
2022/08/01 01:03:03;;;;;;;;;15.20;11.00;;;;;27.37;nan;99187.78;5133490;27;8827;-77
2022/08/01 01:05:45;;;;;;;;;10.00;9.80;;;;;27.47;nan;99190.59;5132708;27;8989;-81
2022/08/01 01:08:20;;;;;;;;;11.20;11.20;;;;;27.34;nan;99191.56;5116648;27;8926;-78
2022/08/01 01:10:55;;;;;;;;;9.80;9.60;;;;;27.14;nan;99197.53;5137551;27;8855;-77
2022/08/01 01:13:34;;;;;;;;;9.80;9.80;;;;;27.19;nan;99193.53;5133162;27;8858;-78
2022/08/01 01:16:09;;;;;;;;;11.80;11.20;;;;;27.17;nan;99197.31;5133295;27;8937;-76
2022/08/01 01:18:44;;;;;;;;;12.20;11.00;;;;;27.20;nan;99186.34;5135517;27;8851;-77
2022/08/01 01:21:31;;;;;;;;;13.20;10.60;;;;;27.27;nan;99187.63;5132903;27;8909;-79
2022/08/01 01:24:12;;;;;;;;;10.80;10.80;;;;;27.11;nan;99187.03;5146514;27;8863;-77
2022/08/01 01:26:47;;;;;;;;;13.00;13.00;;;;;27.00;nan;99191.38;5156442;27;9618;-76
2022/08/01 01:29:21;;;;;;;;;10.40;10.20;;;;;26.99;nan;99191.47;5142224;27;8934;-81
2022/08/01 01:31:56;;;;;;;;;15.00;12.60;;;;;26.97;nan;99177.38;5132097;27;8834;-80
2022/08/01 01:34:28;;;;;;;;;10.20;9.00;;;;;26.98;nan;99174.59;5131475;27;8868;-79
2022/08/01 01:36:59;;;;;;;;;10.00;10.00;;;;;27.01;nan;99181.53;5114820;27;9632;-79
2022/08/01 01:39:30;;;;;;;;;13.00;12.20;;;;;27.04;nan;99182.16;5116284;27;8842;-80
2022/08/01 01:42:00;;;;;;;;;11.00;10.80;;;;;27.04;nan;99183.97;5133048;27;8988;-79
2022/08/01 01:44:32;;;;;;;;;11.20;11.20;;;;;27.07;nan;99183.75;5152000;27;8887;-79
2022/08/01 01:47:03;;;;;;;;;12.40;12.40;;;;;26.98;nan;99184.44;5134427;27;8878;-78
2022/08/01 01:49:33;;;;;;;;;10.00;10.00;;;;;27.06;nan;99182.03;5102243;27;8843;-78
2022/08/01 01:52:04;;;;;;;;;12.00;11.60;;;;;27.08;nan;99174.75;5137830;27;8831;-78
2022/08/01 01:54:37;;;;;;;;;12.60;12.00;;;;;27.10;nan;99171.97;5140946;27;8853;-77
2022/08/01 01:57:08;;;;;;;;;12.20;12.00;;;;;27.14;nan;99165.41;5112361;27;8853;-77
2022/08/01 01:59:40;;;;;;;;;10.60;10.60;;;;;27.04;nan;99165.25;5112617;27;8879;-78
2022/08/01 02:02:11;;;;;;;;;8.00;8.00;;;;;26.88;nan;99168.22;5112547;27;8853;-78
2022/08/01 02:04:43;;;;;;;;;10.40;10.00;;;;;26.96;nan;99165.81;5112703;27;8873;-78
2022/08/01 02:07:15;;;;;;;;;10.40;10.00;;;;;26.78;nan;99164.50;5129657;27;8826;-77
2022/08/01 02:09:46;;;;;;;;;12.80;12.80;;;;;26.67;nan;99167.09;5139555;27;8940;-78
2022/08/01 02:12:18;;;;;;;;;12.00;10.80;;;;;26.60;nan;99162.22;5114338;27;8933;-80
2022/08/01 02:14:51;;;;;;;;;12.80;11.20;;;;;26.61;nan;99163.06;5133425;27;8850;-79
2022/08/01 02:17:21;;;;;;;;;10.00;10.00;;;;;26.66;nan;99168.94;5134170;27;8882;-77
2022/08/01 02:19:51;;;;;;;;;9.40;9.40;;;;;26.69;nan;99162.50;5150638;27;8855;-77
2022/08/01 02:22:26;;;;;;;;;10.80;9.80;;;;;26.66;nan;99166.25;5150823;27;8832;-77
2022/08/01 02:25:02;;;;;;;;;9.00;9.00;;;;;26.63;nan;99167.34;5129140;27;8859;-77
2022/08/01 02:27:35;;;;;;;;;10.40;10.40;;;;;26.66;nan;99166.25;5129190;27;8929;-78
2022/08/01 02:30:08;;;;;;;;;11.00;11.00;;;;;26.38;nan;99167.38;5124315;27;8847;-77
2022/08/01 02:32:40;;;;;;;;;12.60;12.20;;;;;26.47;nan;99168.56;5125915;27;8971;-79
2022/08/01 02:35:14;;;;;;;;;11.80;11.80;;;;;26.52;nan;99174.41;5129182;27;9066;-76
2022/08/01 02:37:46;;;;;;;;;11.40;11.40;;;;;26.46;nan;99170.34;5131157;27;8863;-77
2022/08/01 02:40:17;;;;;;;;;11.80;11.80;;;;;26.44;nan;99167.78;5129591;27;8903;-78
2022/08/01 02:42:50;;;;;;;;;13.60;11.80;;;;;26.43;nan;99171.44;5129285;27;8847;-77
2022/08/01 02:45:23;;;;;;;;;11.40;11.40;;;;;26.48;nan;99170.25;5128342;27;9598;-79
2022/08/01 02:47:53;;;;;;;;;12.00;11.00;;;;;26.41;nan;99168.03;5129032;27;8992;-78
2022/08/01 02:50:25;;;;;;;;;12.00;12.00;;;;;26.50;nan;99165.63;5128359;27;9678;-77
2022/08/01 02:52:57;;;;;;;;;11.40;11.20;;;;;26.57;nan;99172.25;5129128;27;8916;-75
2022/08/01 02:55:28;;;;;;;;;11.20;11.00;;;;;26.53;nan;99165.44;5129139;27;8851;-75
2022/08/01 02:57:58;;;;;;;;;12.40;11.00;;;;;26.58;nan;99171.31;5111122;27;8847;-76
2022/08/01 03:00:32;;;;;;;;;12.40;12.20;;;;;26.60;nan;99172.91;5110478;27;8847;-77
2022/08/01 03:03:01;;;;;;;;;14.40;12.40;;;;;26.42;nan;99172.38;5109658;27;8853;-77
2022/08/01 03:05:33;;;;;;;;;13.60;13.60;;;;;26.49;nan;99174.63;5109839;27;8912;-76
2022/08/01 03:08:03;;;;;;;;;36.50;32.75;;;;;26.51;nan;99178.06;5133475;27;8890;-78
2022/08/01 03:10:36;;;;;;;;;16.60;16.60;;;;;26.49;nan;99169.28;5148845;27;8907;-77
2022/08/01 03:13:07;;;;;;;;;13.20;12.40;;;;;26.48;nan;99171.09;5115367;27;8856;-77
2022/08/01 03:15:41;;;;;;;;;12.60;12.60;;;;;26.44;nan;99167.78;5127794;27;9600;-77
2022/08/01 03:18:11;;;;;;;;;11.40;11.40;;;;;26.45;nan;99176.69;5109473;27;8858;-77
2022/08/01 03:20:42;;;;;;;;;12.40;12.40;;;;;26.43;nan;99171.44;5134865;27;8947;-77
2022/08/01 03:23:13;;;;;;;;;12.40;12.00;;;;;26.39;nan;99172.63;5145971;27;8868;-78
2022/08/01 03:25:44;;;;;;;;;13.40;13.40;;;;;26.40;nan;99178.81;5129175;27;8908;-77
2022/08/01 03:28:15;;;;;;;;;14.80;12.60;;;;;26.40;nan;99176.16;5143380;27;8888;-76
2022/08/01 03:30:46;;;;;;;;;15.60;15.60;;;;;26.39;nan;99185.13;5130234;27;8843;-77
2022/08/01 03:33:15;;;;;;;;;12.80;12.80;;;;;26.29;nan;99176.91;5127179;27;8884;-78
2022/08/01 03:35:48;;;;;;;;;14.80;13.60;;;;;26.23;nan;99172.84;5145335;27;8865;-79
2022/08/01 03:38:22;;;;;;;;;15.80;13.20;;;;;26.31;nan;99174.13;5129698;27;8874;-79
2022/08/01 03:40:55;;;;;;;;;15.60;14.00;;;;;26.36;nan;99172.84;5148000;27;8882;-78
2022/08/01 03:43:31;;;;;;;;;12.20;12.00;;;;;26.43;nan;99176.78;5129662;27;8865;-76
2022/08/01 03:46:08;;;;;;;;;14.40;14.40;;;;;26.41;nan;99177.88;5151947;27;8880;-79
2022/08/01 03:48:41;;;;;;;;;13.60;13.20;;;;;26.36;nan;99169.31;5079388;27;8843;-76
2022/08/01 03:51:12;;;;;;;;;13.20;13.20;;;;;26.32;nan;99175.84;5126315;27;8855;-78
2022/08/01 03:53:43;;;;;;;;;89.00;80.75;;;;;26.44;nan;99172.28;5110691;27;8853;-78
2022/08/01 03:56:14;;;;;;;;;17.20;17.20;;;;;26.48;nan;99175.59;5128473;27;11072;-78
2022/08/01 03:58:44;;;;;;;;;18.60;16.00;;;;;26.41;nan;99176.03;5108573;27;8853;-78
2022/08/01 04:01:19;;;;;;;;;15.00;14.80;;;;;26.48;nan;99171.09;5129190;27;8841;-78
2022/08/01 04:03:49;;;;;;;;;14.20;14.00;;;;;26.53;nan;99170.78;5128655;27;8837;-77
2022/08/01 04:06:18;;;;;;;;;16.00;16.00;;;;;26.58;nan;99171.31;5091939;27;8996;-78
2022/08/01 04:08:55;;;;;;;;;41.00;34.33;;;;;26.62;nan;99168.31;5126341;27;8881;-79
2022/08/01 04:11:25;;;;;;;;;16.20;16.20;;;;;26.68;nan;99169.69;5066351;27;8861;-79
2022/08/01 04:13:55;;;;;;;;;17.00;16.60;;;;;26.77;nan;99166.34;5096335;27;8861;-79
2022/08/01 04:16:25;;;;;;;;;15.80;14.60;;;;;26.88;nan;99168.22;5130979;27;9078;-82
2022/08/01 04:18:54;;;;;;;;;14.80;14.80;;;;;26.83;nan;99170.38;5114110;27;8817;-80
2022/08/01 04:21:27;;;;;;;;;16.00;15.20;;;;;26.69;nan;99182.06;5112907;27;8833;-77
2022/08/01 04:24:00;;;;;;;;;15.60;15.60;;;;;26.75;nan;99165.59;5111704;27;8864;-78
2022/08/01 04:26:32;;;;;;;;;13.00;13.00;;;;;26.76;nan;99166.44;5132254;27;8857;-80
2022/08/01 04:29:04;;;;;;;;;22.20;19.00;;;;;26.61;nan;99166.59;5113609;27;8877;-79
2022/08/01 04:31:36;;;;;;;;;17.20;17.00;;;;;26.87;nan;99168.31;5062290;27;8825;-79
2022/08/01 04:34:07;;;;;;;;;16.20;16.20;;;;;26.89;nan;99177.94;5114236;27;8860;-79
2022/08/01 04:36:41;;;;;;;;;17.00;16.40;;;;;26.84;nan;99174.75;5132421;27;8853;-80
2022/08/01 04:39:11;;;;;;;;;93.75;84.50;;;;;27.06;nan;99174.00;5125121;27;8838;-80
2022/08/01 04:41:41;;;;;;;;;76.75;68.50;;;;;27.25;nan;99176.19;5113575;27;11207;-78
2022/08/01 04:44:10;;;;;;;;;22.20;19.80;;;;;27.23;nan;99186.97;5096221;27;11466;-79
2022/08/01 04:46:42;;;;;;;;;19.40;18.20;;;;;27.35;nan;99177.22;5131578;27;8829;-80
2022/08/01 04:49:12;;;;;;;;;16.40;16.20;;;;;27.41;nan;99184.78;5131907;27;8861;-79
2022/08/01 04:51:51;;;;;;;;;14.80;14.80;;;;;27.70;nan;99183.50;5133964;27;8845;-77
2022/08/01 04:54:21;;;;;;;;;16.40;15.40;;;;;27.55;nan;99190.91;5131455;27;8837;-80
2022/08/01 04:56:50;;;;;;;;;17.60;16.60;;;;;27.67;nan;99183.72;5134992;27;8848;-79
2022/08/01 05:02:06;;;;;;;;;17.20;16.80;;;;;27.56;nan;99189.91;5132192;27;8846;-80
2022/08/01 05:04:36;;;;;;;;;15.20;15.20;;;;;27.47;nan;99188.81;5132093;27;9013;-79
2022/08/01 05:07:05;;;;;;;;;16.60;16.60;;;;;27.64;nan;99181.28;5146152;27;8850;-79
2022/08/01 05:09:34;;;;;;;;;17.60;17.20;;;;;27.70;nan;99191.53;5056017;28;8855;-80
2022/08/01 05:12:06;;;;;;;;;15.20;14.60;;;;;27.84;nan;99188.63;5074561;28;8977;-77
2022/08/01 05:14:36;;;;;;;;;17.20;17.20;;;;;27.95;nan;99185.16;5088998;28;8846;-79
2022/08/01 05:17:07;;;;;;;;;18.60;16.40;;;;;28.15;nan;99194.31;5106004;28;9001;-79
2022/08/01 05:19:37;;;;;;;;;15.40;14.40;;;;;28.21;nan;99190.28;5088651;28;8866;-78
2022/08/01 05:22:08;;;;;;;;;16.80;16.80;;;;;28.36;nan;99184.53;5088463;28;8842;-78
2022/08/01 05:24:39;;;;;;;;;18.00;15.80;;;;;28.34;nan;99191.84;5105903;28;8838;-78
2022/08/01 05:27:08;;;;;;;;;16.80;16.80;;;;;28.28;nan;99188.81;5087405;28;8874;-77
2022/08/01 05:29:37;;;;;;;;;16.80;14.20;;;;;28.46;nan;99195.38;5105135;28;8878;-78
2022/08/01 05:32:13;;;;;;;;;18.80;18.80;;;;;28.45;nan;99199.06;5089263;28;8882;-78
2022/08/01 05:34:42;;;;;;;;;25.00;23.75;;;;;28.75;nan;99193.06;5106491;28;8854;-80
2022/08/01 05:37:11;;;;;;;;;20.60;20.60;;;;;29.01;nan;99200.78;5056275;28;8866;-79
2022/08/01 05:39:40;;;;;;;;;18.60;17.00;;;;;28.96;nan;99201.19;5108392;27;8980;-79
2022/08/01 05:42:09;;;;;;;;;21.80;21.80;;;;;28.92;nan;99205.09;5131992;27;8872;-77
2022/08/01 05:44:37;;;;;;;;;19.20;18.80;;;;;29.18;nan;99198.56;5149229;27;8878;-79
2022/08/01 05:47:06;;;;;;;;;21.60;19.80;;;;;29.27;nan;99201.34;5132695;27;8919;-77
2022/08/01 05:49:36;;;;;;;;;20.20;18.80;;;;;29.45;nan;99203.44;5132136;27;8847;-79
2022/08/01 05:52:05;;;;;;;;;18.20;18.20;;;;;29.59;nan;99200.44;5114791;27;9600;-82
2022/08/01 05:54:35;;;;;;;;;17.80;17.00;;;;;29.23;nan;99197.19;5079451;27;8847;-80
2022/08/01 05:57:04;;;;;;;;;22.25;21.50;;;;;28.07;nan;99216.38;5131667;27;9001;-80
2022/08/01 05:59:33;;;;;;;;;18.00;17.60;;;;;28.24;nan;99212.31;5150996;27;9635;-79
2022/08/01 06:02:02;;;;;;;;;20.00;20.00;;;;;28.52;nan;99212.84;5129541;27;8827;-81
2022/08/01 06:04:31;;;;;;;;;17.60;17.20;;;;;27.46;nan;99224.59;5112593;27;8905;-78
2022/08/01 06:07:01;;;;;;;;;15.40;14.80;;;;;26.53;nan;99222.44;5132502;27;8865;-76
2022/08/01 06:09:30;;;;;;;;;16.60;15.80;;;;;26.09;nan;99218.44;5135372;27;8856;-79
2022/08/01 06:11:59;;;;;;;;;17.00;17.00;;;;;26.69;nan;99218.69;5132564;27;8841;-80
2022/08/01 06:14:28;;;;;;;;;16.60;16.00;;;;;26.21;nan;99222.06;5104812;27;8839;-79
2022/08/01 06:16:57;;;;;;;;;16.20;15.60;;;;;26.34;nan;99220.22;5064237;28;8871;-77
2022/08/01 06:19:26;;;;;;;;;19.00;18.60;;;;;26.29;nan;99227.69;5063655;28;8972;-79
2022/08/01 06:21:54;;;;;;;;;20.00;19.00;;;;;26.74;nan;99219.22;5044367;28;8866;-81
2022/08/01 06:24:25;;;;;;;;;21.00;20.50;;;;;27.18;nan;99217.72;5014945;28;9051;-79
2022/08/01 06:26:53;;;;;;;;;16.60;16.60;;;;;27.39;nan;99216.16;5045309;28;8865;-78
2022/08/01 06:29:22;;;;;;;;;17.80;17.40;;;;;27.53;nan;99217.78;5028119;28;8880;-79
2022/08/01 06:31:51;;;;;;;;;17.80;17.80;;;;;28.24;nan;99216.84;5028586;28;9675;-69
2022/08/01 06:34:20;;;;;;;;;17.40;17.40;;;;;27.99;nan;99224.13;5044376;28;8854;-70
2022/08/01 06:36:49;;;;;;;;;20.00;19.00;;;;;28.34;nan;99213.31;5047655;28;8858;-68
2022/08/01 06:39:17;;;;;;;;;25.80;23.40;;;;;28.64;nan;99216.34;5028303;28;9710;-69
2022/08/01 06:41:47;;;;;;;;;17.00;17.00;;;;;28.48;nan;99214.88;5041712;28;8886;-69
2022/08/01 06:44:16;;;;;;;;;19.80;17.20;;;;;28.47;nan;99212.31;5026983;28;8878;-69
2022/08/01 06:46:45;;;;;;;;;20.00;19.40;;;;;28.91;nan;99214.13;5043190;28;8818;-69
2022/08/01 06:49:13;;;;;;;;;16.40;16.40;;;;;29.01;nan;99210.69;5082151;28;8903;-70
2022/08/01 06:51:42;;;;;;;;;15.00;15.00;;;;;29.25;nan;99210.50;5084129;28;8862;-70
2022/08/01 06:54:10;;;;;;;;;18.80;18.40;;;;;28.32;nan;99223.31;5140394;27;8871;-71
2022/08/01 06:56:39;;;;;;;;;17.00;16.80;;;;;27.87;nan;99217.88;5148771;27;8871;-70
2022/08/01 06:59:09;;;;;;;;;13.80;13.00;;;;;28.46;nan;99216.00;5148955;27;8862;-70
2022/08/01 07:01:38;;;;;;;;;12.20;12.20;;;;;28.41;nan;99215.50;5148495;27;8922;-69
2022/08/01 07:04:06;;;;;;;;;10.00;10.00;;;;;28.63;nan;99215.50;5148387;27;8974;-68
2022/08/01 07:06:35;;;;;;;;;11.40;11.40;;;;;29.09;nan;99211.75;5148051;27;9662;-68
2022/08/01 07:09:04;;;;;;;;;16.80;13.80;;;;;29.54;nan;99216.94;5140594;27;8911;-68
2022/08/01 07:11:38;;;;;;;;;11.00;11.00;;;;;28.76;nan;99223.44;5127583;27;8818;-69
2022/08/01 07:14:06;;;;;;;;;11.40;10.80;;;;;28.48;nan;99219.41;5139054;27;8858;-70
2022/08/01 07:16:37;;;;;;;;;12.40;12.40;;;;;29.22;nan;99218.81;5127408;27;8845;-70
2022/08/01 07:19:05;;;;;;;;;12.60;12.60;;;;;29.39;nan;99217.41;5127895;27;8846;-69
2022/08/01 07:21:34;;;;;;;;;9.20;9.20;;;;;29.52;nan;99218.06;5128564;27;8847;-70
2022/08/01 07:24:09;;;;;;;;;13.60;11.40;;;;;29.25;nan;99223.94;5131137;27;8881;-71
2022/08/01 07:26:42;;;;;;;;;11.20;11.20;;;;;28.72;nan;99217.44;5136117;27;8861;-68
2022/08/01 07:29:20;;;;;;;;;9.00;9.00;;;;;27.84;nan;99227.97;5132435;27;8949;-71
2022/08/01 07:31:50;;;;;;;;;6.80;6.40;;;;;27.84;nan;99228.81;5137200;27;8864;-69
2022/08/01 07:34:18;;;;;;;;;9.00;7.00;;;;;28.45;nan;99217.84;5131286;27;8884;-68
2022/08/01 07:36:47;;;;;;;;;8.20;8.20;;;;;29.06;nan;99212.00;5092031;27;8846;-70
2022/08/01 07:39:16;;;;;;;;;9.60;9.60;;;;;29.48;nan;99217.47;5130324;27;8837;-69
2022/08/01 07:41:45;;;;;;;;;9.80;9.80;;;;;29.24;nan;99214.16;5145453;27;8855;-70
2022/08/01 07:44:34;;;;;;;;;10.80;10.80;;;;;28.60;nan;99215.75;5152210;27;8855;-72
2022/08/01 07:47:04;;;;;;;;;11.00;11.00;;;;;29.32;nan;99214.34;5134565;27;8862;-68
2022/08/01 07:49:33;;;;;;;;;14.80;11.80;;;;;28.94;nan;99219.25;5095222;27;8869;-72
2022/08/01 07:52:07;;;;;;;;;10.20;10.00;;;;;28.69;nan;99211.47;5152048;27;8831;-70
2022/08/01 07:54:36;;;;;;;;;10.20;10.20;;;;;28.61;nan;99208.56;5087135;28;9609;-69
2022/08/01 07:57:05;;;;;;;;;12.40;11.60;;;;;29.05;nan;99204.91;5070354;28;8950;-71
2022/08/01 07:59:34;;;;;;;;;12.00;11.40;;;;;29.01;nan;99206.16;5087399;28;9543;-71
2022/08/01 08:02:04;;;;;;;;;14.20;12.20;;;;;28.57;nan;99216.00;5087135;28;8842;-70
2022/08/01 08:04:33;;;;;;;;;10.40;10.40;;;;;28.19;nan;99212.69;5087048;28;8904;-72
2022/08/01 08:07:02;;;;;;;;;10.60;10.60;;;;;27.91;nan;99207.81;5070235;28;8845;-70
2022/08/01 08:09:31;;;;;;;;;9.40;9.40;;;;;27.84;nan;99209.22;5086845;28;8858;-69
2022/08/01 08:12:06;;;;;;;;;11.80;11.80;;;;;28.40;nan;99214.66;5087671;28;8838;-71
2022/08/01 08:14:36;;;;;;;;;12.00;12.00;;;;;28.25;nan;99208.69;5054673;28;8850;-70
2022/08/01 08:17:07;;;;;;;;;13.00;13.00;;;;;28.91;nan;99213.28;5087411;28;8860;-70
2022/08/01 08:19:38;;;;;;;;;12.60;12.60;;;;;29.58;nan;99214.84;5087110;28;8845;-70
2022/08/01 08:22:08;;;;;;;;;13.40;12.40;;;;;29.14;nan;99209.56;5087059;28;8988;-70
2022/08/01 08:24:38;;;;;;;;;13.40;13.40;;;;;29.43;nan;99219.69;5088864;27;8853;-70
2022/08/01 08:27:13;;;;;;;;;12.40;12.40;;;;;28.75;nan;99219.03;5151403;27;9062;-72
2022/08/01 08:29:42;;;;;;;;;14.00;14.00;;;;;28.31;nan;99223.44;5151491;27;8832;-71
2022/08/01 08:32:12;;;;;;;;;14.60;13.80;;;;;28.77;nan;99212.56;5151386;27;8862;-69
2022/08/01 08:34:40;;;;;;;;;15.80;14.60;;;;;28.52;nan;99220.88;5151606;27;8982;-71
2022/08/01 08:37:09;;;;;;;;;13.00;13.00;;;;;28.19;nan;99230.63;5151146;27;8898;-72
2022/08/01 08:39:38;;;;;;;;;15.40;15.40;;;;;28.58;nan;99218.59;5132356;27;8851;-71
2022/08/01 08:42:10;;;;;;;;;16.80;15.80;;;;;28.58;nan;99215.91;5116211;27;8867;-72
2022/08/01 08:44:39;;;;;;;;;19.00;18.00;;;;;28.89;nan;99216.06;5098342;27;8851;-70
2022/08/01 08:47:14;;;;;;;;;13.60;12.80;;;;;29.18;nan;99222.75;5151117;27;8839;-70
2022/08/01 08:49:48;;;;;;;;;14.60;14.00;;;;;28.85;nan;99219.16;5151792;27;8850;-72
2022/08/01 08:52:19;;;;;;;;;18.40;18.40;;;;;28.88;nan;99221.56;5151200;27;8835;-69
2022/08/01 08:54:49;;;;;;;;;17.20;15.60;;;;;28.92;nan;99212.28;5151652;27;8861;-69
2022/08/01 08:57:20;;;;;;;;;19.00;18.60;;;;;29.01;nan;99214.19;5135738;27;8845;-69
2022/08/01 08:59:51;;;;;;;;;12.60;12.60;;;;;29.26;nan;99223.81;5151045;27;8867;-71
2022/08/01 09:02:21;;;;;;;;;18.80;18.40;;;;;29.09;nan;99229.69;5149314;27;8925;-72
2022/08/01 09:04:51;;;;;;;;;14.00;14.00;;;;;29.31;nan;99221.56;5127966;27;8839;-71
2022/08/01 09:07:19;;;;;;;;;17.60;15.00;;;;;29.16;nan;99218.34;5114832;27;8962;-72
2022/08/01 09:09:49;;;;;;;;;19.00;19.00;;;;;29.08;nan;99214.56;5123876;27;8857;-71
2022/08/01 09:12:17;;;;;;;;;18.60;17.60;;;;;29.03;nan;99209.56;5149979;27;8874;-70
2022/08/01 09:14:49;;;;;;;;;15.20;15.20;;;;;29.10;nan;99212.59;5129561;27;8827;-70
2022/08/01 09:17:18;;;;;;;;;18.20;18.20;;;;;29.41;nan;99204.69;5129703;27;8861;-69
2022/08/01 09:19:51;;;;;;;;;19.80;19.80;;;;;29.58;nan;99205.94;5132141;27;9136;-69
2022/08/01 09:22:24;;;;;;;;;18.20;18.20;;;;;29.37;nan;99204.09;5130775;27;8868;-69
2022/08/01 09:25:01;;;;;;;;;21.00;19.60;;;;;30.48;nan;99199.97;5111469;27;8830;-69
2022/08/01 09:27:31;;;;;;;;;20.40;20.40;;;;;30.20;nan;99204.22;5128483;27;8930;-70
2022/08/01 09:30:12;;;;;;;;;16.00;15.60;;;;;29.49;nan;99195.00;5129454;27;8880;-70
2022/08/01 09:32:55;;;;;;;;;16.40;16.20;;;;;30.15;nan;99198.38;5136498;27;8819;-71
2022/08/01 09:35:27;;;;;;;;;17.20;16.40;;;;;30.30;nan;99194.34;5134604;27;8842;-70
2022/08/01 09:38:15;;;;;;;;;19.60;17.40;;;;;30.15;nan;99207.28;5078942;27;8895;-68
2022/08/01 09:40:53;;;;;;;;;16.80;16.00;;;;;30.85;nan;99204.72;5132445;27;8871;-72
2022/08/01 09:43:24;;;;;;;;;16.80;15.40;;;;;30.78;nan;99192.81;5138495;27;8945;-71
2022/08/01 09:45:53;;;;;;;;;16.60;16.60;;;;;31.34;nan;99192.16;5129270;27;8864;-70
2022/08/01 09:48:23;;;;;;;;;15.00;14.40;;;;;31.64;nan;99193.88;5145078;27;8853;-69
2022/08/01 09:50:59;;;;;;;;;14.40;14.00;;;;;31.84;nan;99185.75;5136272;27;8899;-70
2022/08/01 09:53:42;;;;;;;;;18.40;17.20;;;;;31.17;nan;99192.88;5149832;27;8847;-70
2022/08/01 09:56:19;;;;;;;;;15.40;15.40;;;;;31.37;nan;99178.41;5149433;27;8847;-69
2022/08/01 09:58:54;;;;;;;;;15.20;15.00;;;;;32.17;nan;99175.44;5149972;27;8955;-81
2022/08/01 10:01:28;;;;;;;;;14.00;14.00;;;;;32.14;nan;99182.00;5149989;27;8992;-69
2022/08/01 10:04:07;;;;;;;;;15.20;15.20;;;;;32.41;nan;99181.16;5146675;27;8855;-72
2022/08/01 10:06:39;;;;;;;;;13.80;13.80;;;;;32.81;nan;99169.13;5142819;27;8821;-73
2022/08/01 10:09:09;;;;;;;;;12.20;12.20;;;;;33.03;nan;99175.13;5130446;27;8880;-69
2022/08/01 10:11:38;;;;;;;;;13.60;13.00;;;;;32.55;nan;99169.03;5149113;27;8874;-72
2022/08/01 10:14:08;;;;;;;;;13.60;13.40;;;;;32.94;nan;99170.63;5149103;27;8843;-68
2022/08/01 10:16:37;;;;;;;;;14.20;14.00;;;;;31.14;nan;99180.56;5140799;27;8888;-77
2022/08/01 10:19:08;;;;;;;;;6.80;6.20;;;;;32.05;nan;99169.38;5110031;27;8839;-82
2022/08/01 10:21:41;;;;;;;;;11.00;11.00;;;;;32.35;nan;99172.81;5145426;27;8863;-79
2022/08/01 10:24:28;;;;;;;;;11.80;11.80;;;;;32.51;nan;99169.47;5136103;27;8965;-82
2022/08/01 10:27:03;;;;;;;;;12.00;12.00;;;;;32.76;nan;99167.91;5141563;27;8859;-77
2022/08/01 10:29:38;;;;;;;;;12.20;11.60;;;;;32.98;nan;99167.44;5134374;27;8949;-79
2022/08/01 10:32:14;;;;;;;;;14.40;12.80;;;;;33.16;nan;99161.25;5144497;27;8984;-80
2022/08/01 10:34:43;;;;;;;;;13.40;13.40;;;;;32.88;nan;99176.66;5142490;27;8839;-85
2022/08/01 10:37:14;;;;;;;;;13.60;12.60;;;;;32.23;nan;99167.63;5094262;27;8875;-80
2022/08/01 10:39:43;;;;;;;;;13.00;12.60;;;;;32.12;nan;99158.84;5089912;28;8855;-81
2022/08/01 10:42:14;;;;;;;;;11.40;11.20;;;;;31.97;nan;99163.88;5085351;27;8853;-75
2022/08/01 10:44:46;;;;;;;;;12.40;11.60;;;;;32.49;nan;99157.97;5104843;28;9009;-78
2022/08/01 10:47:19;;;;;;;;;9.00;9.00;;;;;33.02;nan;99162.59;5121263;27;8866;-78
2022/08/01 10:50:03;;;;;;;;;11.00;10.40;;;;;33.13;nan;99170.50;5121084;27;8849;-78
2022/08/01 10:52:33;;;;;;;;;11.00;11.00;;;;;33.54;nan;99168.13;5075454;27;9594;-77
2022/08/01 10:55:09;;;;;;;;;16.00;15.40;;;;;32.13;nan;99156.00;5106452;27;8847;-74
2022/08/01 10:57:45;;;;;;;;;11.60;11.60;;;;;33.01;nan;99159.06;5107353;27;8866;-76
2022/08/01 11:00:21;;;;;;;;;13.40;13.00;;;;;33.01;nan;99140.13;5109617;27;9059;-77
2022/08/01 11:03:00;;;;;;;;;9.00;9.00;;;;;32.63;nan;99161.03;5115893;27;8829;-74
2022/08/01 11:05:33;;;;;;;;;13.00;13.00;;;;;32.64;nan;99153.78;5107924;27;8967;-76
2022/08/01 11:08:06;;;;;;;;;12.80;12.20;;;;;32.23;nan;99153.25;5090403;27;8937;-75
2022/08/01 11:10:39;;;;;;;;;12.80;12.20;;;;;32.46;nan;99159.13;5129912;27;8843;-75
2022/08/01 11:13:08;;;;;;;;;13.40;12.40;;;;;32.86;nan;99149.78;5148705;27;8897;-74
2022/08/01 11:15:36;;;;;;;;;13.00;13.00;;;;;33.40;nan;99155.19;5139542;27;9744;-75
2022/08/01 11:18:31;;;;;;;;;12.80;11.80;;;;;34.06;nan;99152.94;5127819;27;9644;-76
2022/08/01 11:21:01;;;;;;;;;13.60;12.80;;;;;33.98;nan;99146.47;5142996;27;8839;-75
2022/08/01 11:23:53;;;;;;;;;15.20;14.40;;;;;33.26;nan;99151.19;5147203;27;8835;-74
2022/08/01 11:26:23;;;;;;;;;14.20;14.20;;;;;33.55;nan;99144.66;5095418;27;8963;-75
2022/08/01 11:29:18;;;;;;;;;12.00;12.00;;;;;34.57;nan;99133.00;5147671;27;8859;-74
2022/08/01 11:31:49;;;;;;;;;13.60;12.60;;;;;34.87;nan;99132.59;5147890;27;8859;-75
2022/08/01 11:34:17;;;;;;;;;12.40;12.00;;;;;35.19;nan;99134.50;5148205;27;8879;-75
2022/08/01 11:36:47;;;;;;;;;13.00;12.00;;;;;35.28;nan;99141.63;5134997;27;8886;-75
2022/08/01 11:39:28;;;;;;;;;11.00;11.00;;;;;35.06;nan;99139.56;5132134;27;9501;-78
2022/08/01 11:42:20;;;;;;;;;14.00;12.80;;;;;35.62;nan;99137.03;5142656;27;8850;-76
2022/08/01 11:44:51;;;;;;;;;12.20;12.20;;;;;35.63;nan;99136.00;5146331;27;8901;-75
2022/08/01 11:47:39;;;;;;;;;14.20;14.20;;;;;35.72;nan;99129.56;5131408;27;8900;-75
2022/08/01 11:50:32;;;;;;;;;10.00;10.00;;;;;36.58;nan;99137.91;5127215;27;8869;-77
2022/08/01 11:53:02;;;;;;;;;13.80;13.00;;;;;36.70;nan;99122.94;5129284;27;8833;-79
2022/08/01 11:55:34;;;;;;;;;12.20;12.20;;;;;36.61;nan;99137.56;5128119;27;8861;-78
2022/08/01 11:58:05;;;;;;;;;13.40;13.40;;;;;35.21;nan;99120.78;5127948;27;8903;-79
2022/08/01 12:00:34;;;;;;;;;16.60;14.60;;;;;35.28;nan;99125.38;5128382;27;8884;-76
2022/08/01 12:03:04;;;;;;;;;12.20;12.20;;;;;35.09;nan;99117.56;5142338;27;9680;-79
2022/08/01 12:05:36;;;;;;;;;12.60;12.60;;;;;34.51;nan;99120.13;5127279;27;8857;-74
2022/08/01 12:08:05;;;;;;;;;11.60;11.60;;;;;34.27;nan;99125.47;5128713;27;8854;-74